Stunt Ranch Reserve, Santa Monica Mtns, California Weather observations

Data are for 10 minute period ending at time listed.
 Day   Time   Solar   Ave.   Ave.  Ave.  Vector  Max.   Baro.   Total    
  of    of     Rad.   Air    Rel.  Wind   Wind   Wind  Press.  Precip.   
Year   Day            Temp.  Hum.  Speed  Dir.   Gust                    
2016   (PST)  Kw/m2    F      %     mph   deg.    mph    mb.     in.     
-------------------------------------------------------------------------
 342    5:10   0.00   46.4    84    0.9   280     2.0   969.5    0.00 
 342    5:20   0.00   46.0    84    0.8   131     1.5   969.5    0.00 
 342    5:30   0.00   46.1    84    1.9   126     3.5   969.5    0.00 
 342    5:40   0.00   46.4    82    1.1   330     3.9   969.5    0.00 
 342    5:50   0.00   46.5    76    0.6   301     1.8   969.9    0.00 
 342    6:00   0.00   46.3    74    1.2   296     2.3   969.9    0.00 
 342    6:10   0.00   45.7    75    1.5   284     2.6   970.2    0.00 
 342    6:20   0.00   45.5    77    0.3   308     1.1   970.2    0.00 
 342    6:30   0.00   44.3    82    1.1   112     2.2   970.2    0.00 
 342    6:40   0.00   43.4    87    2.1   142     2.9   970.5    0.00 
 342    6:50   0.00   43.9    82    1.2   214     2.2   970.5    0.00 
 342    7:00   0.01   45.7    73    1.3   223     3.5   970.5    0.00 
 342    7:10   0.02   45.7    75    2.3   270     4.2   970.5    0.00 
 342    7:20   0.03   45.6    75    1.4   246     3.0   970.5    0.00 
 342    7:30   0.06   45.6    75    0.5     4     2.6   970.9    0.00 
 342    7:40   0.08   46.5    70    1.4    63     8.9   970.9    0.00 
 342    7:50   0.09   48.6    59    2.9    66     7.5   970.9    0.00 
 342    8:00   0.08   49.2    56    1.5    98     4.8   971.2    0.00 
 342    8:10   0.09   49.2    58    2.2   278     4.2   971.2    0.00 
 342    8:20   0.10   48.2    75    2.9   277     4.8   971.2    0.00 
 342    8:30   0.14   47.3    78    1.0   230     3.0   971.2    0.00 
 342    8:40   0.14   48.0    79    0.9   318     2.1   971.6    0.00 
 342    8:50   0.15   48.6    73    0.9   249     1.8   971.9    0.00 
 342    9:00   0.10   49.4    64    0.2   266     1.5   972.2    0.00 
 342    9:10   0.13   50.3    67    0.6    96     3.8   972.2    0.00 
 342    9:20   0.29   51.3    66    1.5   332     3.4   972.6    0.00 
 342    9:30   0.30   53.1    60    1.1     5     3.8   972.6    0.00 
 342    9:40   0.28   53.5    57    1.7    46     4.9   972.9    0.00 
 342    9:50   0.33   55.1    56    1.8   359     7.2   972.9    0.00 
 342   10:00   0.41   55.4    56    4.8    53     8.3   972.9    0.00 
 342   10:10   0.47   56.6    53    4.3    48     7.3   972.9    0.00 
 342   10:20   0.49   57.8    51    3.4    70     6.4   972.9    0.00 
 342   10:30   0.51   58.0    44    2.2    77     4.2   972.9    0.00 
 342   10:40   0.51   59.1    47    2.0   292     5.3   972.9    0.00 
 342   10:50   0.52   61.7    47    4.0   275     7.0   972.9    0.00 
 342   11:00   0.53   62.0    39    3.8   262     6.1   972.9    0.00 
 342   11:10   0.52   60.4    37    4.5   268     9.1   972.9    0.00 
 342   11:20   0.53   61.0    35    1.6   249     5.3   972.6    0.00 
 342   11:30   0.54   61.4    34    2.2   281     4.4   972.6    0.00 
 342   11:40   0.50   61.7    35    2.3   250     4.1   972.2    0.00 
 342   11:50   0.53   60.5    40    2.7   122     4.9   972.2    0.00 
 342   12:00   0.54   60.7    42    1.0   188     3.0   972.2    0.00 
 342   12:10   0.54   62.0    37    1.7   269     4.2   971.9    0.00 
 342   12:20   0.54   61.1    36    2.5   130     7.9   971.9    0.00 
 342   12:30   0.52   61.2    34    2.3   260     4.7   971.6    0.00 
 342   12:40   0.50   63.3    32    1.9   287     5.5   971.6    0.00 
 342   12:50   0.53   64.3    30    3.2   281     9.2   971.2    0.00 
 342   13:00   0.48   64.7    25    6.1   321    10.7   971.2    0.00 
 342   13:10   0.44   64.5    36    3.7   278     9.8   971.6    0.00 
 342   13:20   0.42   63.7    37    1.8   297     5.0   971.6    0.00 
 342   13:30   0.48   62.6    43    2.2   343     7.2   971.6    0.00 
 342   13:40   0.44   63.0    44    3.6   211    12.1   971.2    0.00 
 342   13:50   0.41   59.9    55    4.1   163    14.0   971.2    0.00 
 342   14:00   0.40   62.2    46    2.7   285     7.7   971.2    0.00 
 342   14:10   0.36   64.1    44    2.0   287     6.9   971.2    0.00 
 342   14:20   0.17   62.0    50    4.1   193    11.9   971.2    0.00 
 342   14:30   0.12   57.6    62    5.7   159    11.6   971.2    0.00 
 342   14:40   0.22   56.9    62    5.8   159    11.5   971.2    0.00 
 342   14:50   0.26   57.6    60    3.9   160     8.3   971.6    0.00 
 342   15:00   0.20   58.2    57    2.5   173     6.7   971.6    0.00 
 342   15:10   0.18   58.1    57    2.1   158     6.1   971.6    0.00 
 342   15:20   0.20   58.0    58    2.2   177     7.3   971.9    0.00 
 342   15:30   0.19   58.1    61    0.6    15     1.9   971.9    0.00 
 342   15:40   0.12   57.6    63    1.0   295     3.4   971.9    0.00 
 342   15:50   0.06   57.0    64    0.8   304     4.5   972.2    0.00 
 342   16:00   0.05   55.9    66    1.4   256     7.0   972.2    0.00 
 342   16:10   0.05   55.2    68    0.8    84     1.9   972.2    0.00 
 342   16:20   0.05   54.6    68    0.9    78     1.7   972.2    0.00 
 342   16:30   0.03   54.3    69    0.4   186     1.4   972.2    0.00 
 342   16:40   0.02   53.8    71    0.4   151     2.4   972.2    0.00 
 342   16:50   0.01   53.0    72    1.0   186     2.2   972.6    0.00 
 342   17:00   0.00   52.2    74    0.6   182     1.8   972.6    0.00 
 342   17:10   0.00   51.6    74    0.7   173     2.0   972.6    0.00 
 342   17:20   0.00   51.1    74    0.5   208     1.7   972.6    0.00 
 342   17:30   0.00   51.5    74    1.2   303     2.3   972.6    0.00 
 342   17:40   0.00   51.7    73    0.2   287     1.2   972.9    0.00 
 342   17:50   0.00   51.9    73    1.0   226     2.9   972.9    0.00 
 342   18:00   0.00   51.6    74    2.6   223     4.5   973.3    0.00 
 342   18:10   0.00   51.5    75    2.9   215     4.2   973.3    0.00 
 342   18:20   0.00   51.5    74    2.7   204     3.5   973.3    0.00 
 342   18:30   0.00   51.4    75    2.8   213     4.0   973.3    0.00 
 342   18:40   0.00   51.6    74    2.2   210     3.4   973.3    0.00 
 342   18:50   0.00   51.4    75    2.3   219     3.0   973.3    0.00 
 342   19:00   0.00   50.6    76    0.4   281     2.0   973.6    0.00 
 342   19:10   0.00   50.0    78    0.1   161     0.9   973.6    0.00 
 342   19:20   0.00   49.4    79    1.3   162     2.3   973.6    0.00 
 342   19:30   0.00   48.8    80    1.9   150     2.6   973.6    0.00 
 342   19:40   0.00   48.9    79    1.2   175     2.8   973.6    0.00 
 342   19:50   0.00   49.3    79    1.0   268     2.0   973.6    0.00 
 342   20:00   0.00   49.1    79    0.6   209     1.9   973.6    0.00 
 342   20:10   0.00   48.7    80    0.3   209     1.9   973.6    0.00 
 342   20:20   0.00   49.0    78    1.3   178     2.3   973.9    0.00 
 342   20:30   0.00   48.9    77    0.9   179     2.7   973.6    0.00 
 342   20:40   0.00   49.1    76    1.9   198     3.1   973.9    0.00 
 342   20:50   0.00   48.9    75    1.4   180     3.1   973.9    0.00 
 342   21:00   0.00   48.8    76    1.0   241     1.6   973.9    0.00 
 342   21:10   0.00   48.9    77    0.6   261     1.9   973.9    0.00 
 342   21:20   0.00   48.7    76    1.5   222     2.3   973.9    0.00 
 342   21:30   0.00   48.6    78    0.0   229     0.5   973.9    0.00 
 342   21:40   0.00   48.5    79    0.4   160     2.0   974.3    0.00 
 342   21:50   0.00   48.3    77    0.8   130     2.1   974.3    0.00 
 342   22:00   0.00   48.4    79    0.9   293     1.6   974.3    0.00 
 342   22:10   0.00   48.5    79    0.4   211     1.9   974.3    0.00 
 342   22:20   0.00   48.2    78    0.7   261     1.5   973.9    0.00 
 342   22:30   0.00   48.5    73    1.5   221     3.3   973.9    0.00 
 342   22:40   0.00   49.0    70    1.1   232     2.4   973.9    0.00 
 342   22:50   0.00   48.6    70    0.4   155     2.0   973.9    0.00 
 342   23:00   0.00   48.9    71    2.0   146     3.8   973.9    0.00 
 342   23:10   0.00   48.9    70    1.1   149     3.1   973.9    0.00 
 342   23:20   0.00   49.4    68    0.7   178     1.9   973.9    0.00 
 342   23:30   0.00   48.7    70    0.8   334     1.5   974.3    0.00 
 342   23:40   0.00   48.2    72    0.8    69     1.5   974.3    0.00 
 342   23:50   0.00   47.2    74    1.6   122     3.6   974.3    0.00 
 343    0:00   0.00   47.3    72    1.8   151     3.6   974.3    0.00 
 343    0:10   0.00   48.8    67    1.1   151     3.2   973.9    0.00 
 343    0:20   0.00   48.6    67    1.1   142     2.4   974.3    0.00 
 343    0:30   0.00   49.0    66    0.9   273     2.0   974.3    0.00 
 343    0:40   0.00   48.6    66    0.5    60     1.3   974.3    0.00 
 343    0:50   0.00   48.1    67    0.8   134     2.2   974.3    0.00 
 343    1:00   0.00   48.2    64    0.7   153     2.1   973.9    0.00 
 343    1:10   0.00   48.0    62    1.5   165     2.9   973.9    0.00 
 343    1:20   0.00   49.0    63    2.0   178     3.4   973.9    0.00 
 343    1:30   0.00   48.9    66    0.6   226     2.0   973.9    0.00 
 343    1:40   0.00   48.5    64    0.5   329     1.6   974.3    0.00 
 343    1:50   0.00   47.8    67    1.3   277     2.5   974.3    0.00 
 343    2:00   0.00   46.9    70    1.2   180     2.7   974.3    0.00 
 343    2:10   0.00   47.3    67    0.9   140     1.8   974.3    0.00 
 343    2:20   0.00   48.7    62    0.8   194     1.9   974.3    0.00 
 343    2:30   0.00   49.3    60    1.0   234     2.3   974.3    0.00 
 343    2:40   0.00   47.9    66    1.4   325     2.0   974.3    0.00 
 343    2:50   0.00   47.3    69    1.3   112     2.6   974.3    0.00 
 343    3:00   0.00   47.0    70    1.8   269     2.9   974.3    0.00 
 343    3:10   0.00   46.0    73    0.9   143     1.9   973.9    0.00 
 343    3:20   0.00   46.8    73    2.1   159     3.2   973.9    0.00 
 343    3:30   0.00   47.7    73    1.6   232     2.6   973.9    0.00 
 343    3:40   0.00   47.4    73    0.8    90     2.2   973.9    0.00 
 343    3:50   0.00   47.7    74    0.8    22     1.7   973.9    0.00 
 343    4:00   0.00   47.6    73    0.7   125     1.8   973.9    0.00 
 343    4:10   0.00   48.2    73    0.8   131     1.6   973.9    0.00 
 343    4:20   0.00   48.3    73    2.2   265     3.2   973.9    0.00 
 343    4:30   0.00   47.6    74    1.1   109     2.2   973.9    0.00 
 343    4:40   0.00   47.7    74    1.3   227     2.5   974.3    0.00 
 343    4:50   0.00   47.7    74    0.6   226     1.8   974.3    0.00 
 343    5:00   0.00   48.4    72    1.1   151     2.6   974.6    0.00 

Return to Stunt Ranch Reserve graphs page.


Western Regional Climate Center,wrcc@dri.edu